sensor_id;sensor_type;location;lat;lon;timestamp;pressure;altitude;pressure_sealevel;temperature;humidity
62011;BME280;47967;51.756;10.174;2024-02-21T05:02:37;100084.91;;;8.21;100.00
62011;BME280;47967;51.756;10.174;2024-02-21T05:06:40;100080.06;;;8.16;100.00
62011;BME280;47967;51.756;10.174;2024-02-21T05:10:43;100085.13;;;8.11;100.00
62011;BME280;47967;51.756;10.174;2024-02-21T05:14:46;100074.38;;;8.11;100.00
62011;BME280;47967;51.756;10.174;2024-02-21T05:18:50;100073.84;;;8.15;100.00
62011;BME280;47967;51.756;10.174;2024-02-21T05:22:53;100082.50;;;8.26;100.00
62011;BME280;47967;51.756;10.174;2024-02-21T05:26:56;100086.56;;;8.22;100.00
62011;BME280;47967;51.756;10.174;2024-02-21T05:30:58;100085.88;;;8.28;100.00
62011;BME280;47967;51.756;10.174;2024-02-21T05:35:02;100076.94;;;8.27;100.00
62011;BME280;47967;51.756;10.174;2024-02-21T05:39:04;100093.56;;;8.31;100.00
62011;BME280;47967;51.756;10.174;2024-02-21T05:43:07;100086.69;;;8.28;100.00
62011;BME280;47967;51.756;10.174;2024-02-21T05:47:10;100083.19;;;8.28;100.00
62011;BME280;47967;51.756;10.174;2024-02-21T05:51:17;100089.38;;;8.28;100.00
62011;BME280;47967;51.756;10.174;2024-02-21T05:55:20;100099.59;;;8.33;100.00
62011;BME280;47967;51.756;10.174;2024-02-21T05:59:22;100103.78;;;8.36;100.00
62011;BME280;47967;51.756;10.174;2024-02-21T06:03:25;100104.47;;;8.38;100.00
62011;BME280;47967;51.756;10.174;2024-02-21T06:07:29;100097.88;;;8.40;100.00
62011;BME280;47967;51.756;10.174;2024-02-21T06:11:31;100105.16;;;8.31;100.00
62011;BME280;47967;51.756;10.174;2024-02-21T06:15:34;100105.81;;;8.33;100.00
62011;BME280;47967;51.756;10.174;2024-02-21T06:19:39;100076.78;;;8.29;100.00
62011;BME280;47967;51.756;10.174;2024-02-21T06:23:43;100055.81;;;8.24;100.00
62011;BME280;47967;51.756;10.174;2024-02-21T06:27:45;100046.59;;;8.18;100.00
62011;BME280;47967;51.756;10.174;2024-02-21T06:31:48;100057.97;;;8.29;100.00
62011;BME280;47967;51.756;10.174;2024-02-21T06:35:51;100053.09;;;8.32;100.00
62011;BME280;47967;51.756;10.174;2024-02-21T06:39:56;100040.75;;;8.38;100.00
62011;BME280;47967;51.756;10.174;2024-02-21T06:43:58;100044.78;;;8.42;100.00
62011;BME280;47967;51.756;10.174;2024-02-21T06:48:01;100048.81;;;8.46;100.00
62011;BME280;47967;51.756;10.174;2024-02-21T06:52:04;100038.06;;;8.38;100.00
62011;BME280;47967;51.756;10.174;2024-02-21T06:56:08;100038.75;;;8.40;100.00
62011;BME280;47967;51.756;10.174;2024-02-21T07:00:11;100042.25;;;8.41;100.00
62011;BME280;47967;51.756;10.174;2024-02-21T07:04:14;100038.25;;;8.37;100.00
62011;BME280;47967;51.756;10.174;2024-02-21T07:08:17;100034.91;;;8.34;100.00
62011;BME280;47967;51.756;10.174;2024-02-21T07:12:21;100040.31;;;8.26;100.00
62011;BME280;47967;51.756;10.174;2024-02-21T07:16:23;100043.94;;;8.42;100.00
62011;BME280;47967;51.756;10.174;2024-02-21T07:20:27;100037.34;;;8.44;100.00
62011;BME280;47967;51.756;10.174;2024-02-21T07:24:30;100039.34;;;8.51;100.00
62011;BME280;47967;51.756;10.174;2024-02-21T07:28:34;100039.47;;;8.57;100.00
62011;BME280;47967;51.756;10.174;2024-02-21T07:32:36;100029.69;;;8.64;100.00
62011;BME280;47967;51.756;10.174;2024-02-21T07:36:39;100028.81;;;8.64;100.00
62011;BME280;47967;51.756;10.174;2024-02-21T07:40:44;100016.16;;;8.73;100.00
62011;BME280;47967;51.756;10.174;2024-02-21T07:44:48;100016.06;;;8.81;100.00
62011;BME280;47967;51.756;10.174;2024-02-21T07:48:50;100008.47;;;8.85;100.00
62011;BME280;47967;51.756;10.174;2024-02-21T07:52:53;100007.56;;;8.92;100.00
62011;BME280;47967;51.756;10.174;2024-02-21T07:56:55;100018.16;;;8.94;100.00
62011;BME280;47967;51.756;10.174;2024-02-21T08:00:59;100029.66;;;9.03;100.00
62011;BME280;47967;51.756;10.174;2024-02-21T08:05:01;100023.00;;;9.13;100.00
62011;BME280;47967;51.756;10.174;2024-02-21T08:09:05;100018.63;;;9.12;100.00
62011;BME280;47967;51.756;10.174;2024-02-21T08:13:07;100028.84;;;9.32;100.00
62011;BME280;47967;51.756;10.174;2024-02-21T08:17:11;100024.78;;;9.36;100.00
62011;BME280;47967;51.756;10.174;2024-02-21T08:21:14;100013.72;;;9.46;100.00
62011;BME280;47967;51.756;10.174;2024-02-21T08:25:16;100014.00;;;9.51;100.00
62011;BME280;47967;51.756;10.174;2024-02-21T08:29:19;100014.81;;;9.52;100.00
62011;BME280;47967;51.756;10.174;2024-02-21T08:33:22;100011.31;;;9.51;100.00
62011;BME280;47967;51.756;10.174;2024-02-21T08:37:27;100025.78;;;9.50;100.00
62011;BME280;47967;51.756;10.174;2024-02-21T08:41:30;100015.09;;;9.57;100.00
62011;BME280;47967;51.756;10.174;2024-02-21T08:45:52;100007.19;;;9.55;100.00
62011;BME280;47967;51.756;10.174;2024-02-21T08:49:56;100003.56;;;9.48;100.00
62011;BME280;47967;51.756;10.174;2024-02-21T08:53:58;99993.53;;;9.57;100.00
62011;BME280;47967;51.756;10.174;2024-02-21T08:58:02;99989.81;;;9.58;100.00
62011;BME280;47967;51.756;10.174;2024-02-21T09:02:05;99978.00;;;9.74;100.00
62011;BME280;47967;51.756;10.174;2024-02-21T09:06:10;99964.59;;;9.81;100.00
62011;BME280;47967;51.756;10.174;2024-02-21T09:10:14;99973.75;;;10.01;100.00
62011;BME280;47967;51.756;10.174;2024-02-21T09:14:17;99969.97;;;10.17;100.00
62011;BME280;47967;51.756;10.174;2024-02-21T09:18:19;99975.22;;;10.04;100.00
62011;BME280;47967;51.756;10.174;2024-02-21T09:22:23;99973.63;;;10.09;99.51
62011;BME280;47967;51.756;10.174;2024-02-21T09:26:26;99982.50;;;10.03;97.19
62011;BME280;47967;51.756;10.174;2024-02-21T09:30:29;99971.72;;;10.03;95.19
62011;BME280;47967;51.756;10.174;2024-02-21T09:34:31;99958.53;;;10.15;94.24
62011;BME280;47967;51.756;10.174;2024-02-21T09:38:35;99955.06;;;10.21;92.35
62011;BME280;47967;51.756;10.174;2024-02-21T09:42:38;99944.13;;;11.57;98.80
62011;BME280;47967;51.756;10.174;2024-02-21T09:46:43;99941.66;;;11.55;91.02
62011;BME280;47967;51.756;10.174;2024-02-21T09:50:47;99951.84;;;11.11;85.91
62011;BME280;47967;51.756;10.174;2024-02-21T09:54:52;99949.78;;;10.85;85.69
62011;BME280;47967;51.756;10.174;2024-02-21T09:58:55;99935.28;;;10.57;87.59
62011;BME280;47967;51.756;10.174;2024-02-21T10:02:59;99948.44;;;10.24;90.49
62011;BME280;47967;51.756;10.174;2024-02-21T10:07:02;99944.09;;;10.23;92.31
62011;BME280;47967;51.756;10.174;2024-02-21T10:11:06;99951.59;;;10.49;91.90
62011;BME280;47967;51.756;10.174;2024-02-21T10:15:10;99937.28;;;10.49;90.67
62011;BME280;47967;51.756;10.174;2024-02-21T10:19:16;99937.75;;;10.52;90.95
62011;BME280;47967;51.756;10.174;2024-02-21T10:23:19;99936.41;;;10.41;90.61
62011;BME280;47967;51.756;10.174;2024-02-21T10:27:23;99933.25;;;10.38;92.52
62011;BME280;47967;51.756;10.174;2024-02-21T10:31:26;99946.06;;;10.57;90.86
62011;BME280;47967;51.756;10.174;2024-02-21T10:35:30;99935.19;;;10.44;93.01
62011;BME280;47967;51.756;10.174;2024-02-21T10:39:33;99918.34;;;10.42;92.51
62011;BME280;47967;51.756;10.174;2024-02-21T10:43:39;99913.47;;;10.31;91.64
62011;BME280;47967;51.756;10.174;2024-02-21T10:47:43;99899.47;;;10.20;92.43
62011;BME280;47967;51.756;10.174;2024-02-21T10:51:46;99887.84;;;10.20;92.51
62011;BME280;47967;51.756;10.174;2024-02-21T10:55:51;99889.56;;;10.28;92.61
62011;BME280;47967;51.756;10.174;2024-02-21T11:00:00;99884.16;;;10.28;92.05
62011;BME280;47967;51.756;10.174;2024-02-21T11:04:04;99876.41;;;10.39;90.78
62011;BME280;47967;51.756;10.174;2024-02-21T11:08:08;99865.84;;;10.38;89.65
62011;BME280;47967;51.756;10.174;2024-02-21T11:12:11;99855.34;;;10.50;90.19
62011;BME280;47967;51.756;10.174;2024-02-21T11:16:22;99844.19;;;10.60;90.47
62011;BME280;47967;51.756;10.174;2024-02-21T11:20:33;99847.34;;;10.70;91.30
62011;BME280;47967;51.756;10.174;2024-02-21T11:24:36;99824.97;;;10.76;90.50
62011;BME280;47967;51.756;10.174;2024-02-21T11:28:39;99821.91;;;10.86;90.77
62011;BME280;47967;51.756;10.174;2024-02-21T11:32:43;99802.84;;;11.01;90.78
62011;BME280;47967;51.756;10.174;2024-02-21T11:36:47;99787.47;;;10.88;90.43
62011;BME280;47967;51.756;10.174;2024-02-21T11:40:51;99766.47;;;10.83;89.35
62011;BME280;47967;51.756;10.174;2024-02-21T11:44:53;99767.38;;;11.04;90.79
62011;BME280;47967;51.756;10.174;2024-02-21T11:48:59;99745.94;;;10.96;89.92
62011;BME280;47967;51.756;10.174;2024-02-21T11:53:03;99755.09;;;11.01;91.74
62011;BME280;47967;51.756;10.174;2024-02-21T11:57:06;99752.84;;;11.12;90.45
62011;BME280;47967;51.756;10.174;2024-02-21T12:01:08;99751.38;;;11.02;90.13
62011;BME280;47967;51.756;10.174;2024-02-21T12:05:12;99732.22;;;10.91;90.61
62011;BME280;47967;51.756;10.174;2024-02-21T12:09:15;99730.38;;;11.04;92.13
62011;BME280;47967;51.756;10.174;2024-02-21T12:13:18;99725.03;;;11.11;92.52
62011;BME280;47967;51.756;10.174;2024-02-21T12:17:24;99703.22;;;11.26;91.77
62011;BME280;47967;51.756;10.174;2024-02-21T12:21:30;99692.44;;;11.33;89.57
62011;BME280;47967;51.756;10.174;2024-02-21T12:25:34;99698.66;;;11.13;91.25
62011;BME280;47967;51.756;10.174;2024-02-21T12:29:37;99691.97;;;11.09;93.15
62011;BME280;47967;51.756;10.174;2024-02-21T12:33:39;99685.34;;;11.05;92.43
62011;BME280;47967;51.756;10.174;2024-02-21T12:37:43;99679.06;;;10.91;93.01
62011;BME280;47967;51.756;10.174;2024-02-21T12:41:46;99679.31;;;11.03;92.00
62011;BME280;47967;51.756;10.174;2024-02-21T12:45:48;99678.25;;;10.97;91.48
62011;BME280;47967;51.756;10.174;2024-02-21T12:49:51;99669.34;;;11.10;93.57
62011;BME280;47967;51.756;10.174;2024-02-21T12:53:55;99660.63;;;11.01;94.76
62011;BME280;47967;51.756;10.174;2024-02-21T12:58:03;99669.16;;;11.18;91.91
62011;BME280;47967;51.756;10.174;2024-02-21T13:02:05;99663.34;;;11.28;91.17
62011;BME280;47967;51.756;10.174;2024-02-21T13:06:09;99658.13;;;11.20;91.57
62011;BME280;47967;51.756;10.174;2024-02-21T13:10:14;99653.31;;;10.88;91.96
62011;BME280;47967;51.756;10.174;2024-02-21T13:14:16;99654.97;;;10.69;92.75
62011;BME280;47967;51.756;10.174;2024-02-21T13:18:19;99661.84;;;11.05;93.27
62011;BME280;47967;51.756;10.174;2024-02-21T13:22:21;99653.16;;;11.03;90.97
62011;BME280;47967;51.756;10.174;2024-02-21T13:26:28;99654.78;;;10.91;90.41
62011;BME280;47967;51.756;10.174;2024-02-21T13:30:31;99655.56;;;10.71;90.46
62011;BME280;47967;51.756;10.174;2024-02-21T13:34:33;99635.06;;;10.91;90.89
62011;BME280;47967;51.756;10.174;2024-02-21T13:38:36;99623.81;;;10.73;92.59
62011;BME280;47967;51.756;10.174;2024-02-21T13:42:41;99618.47;;;10.80;95.21
62011;BME280;47967;51.756;10.174;2024-02-21T13:46:44;99586.91;;;10.94;95.22
62011;BME280;47967;51.756;10.174;2024-02-21T13:50:47;99588.78;;;10.80;96.50
62011;BME280;47967;51.756;10.174;2024-02-21T13:54:49;99592.50;;;10.79;97.91
62011;BME280;47967;51.756;10.174;2024-02-21T13:58:53;99580.41;;;10.62;95.33
62011;BME280;47967;51.756;10.174;2024-02-21T14:02:56;99573.56;;;10.52;96.97
62011;BME280;47967;51.756;10.174;2024-02-21T14:06:59;99569.03;;;10.66;99.08
62011;BME280;47967;51.756;10.174;2024-02-21T14:11:02;99552.22;;;10.71;97.36
62011;BME280;47967;51.756;10.174;2024-02-21T14:15:06;99536.63;;;10.53;98.03
62011;BME280;47967;51.756;10.174;2024-02-21T14:19:10;99538.25;;;10.47;98.25
62011;BME280;47967;51.756;10.174;2024-02-21T14:23:13;99538.66;;;10.37;99.64
62011;BME280;47967;51.756;10.174;2024-02-21T14:27:16;99546.56;;;10.39;99.36
62011;BME280;47967;51.756;10.174;2024-02-21T14:31:19;99527.47;;;10.40;99.20
62011;BME280;47967;51.756;10.174;2024-02-21T14:35:22;99515.47;;;10.50;99.73
62011;BME280;47967;51.756;10.174;2024-02-21T14:39:25;99499.91;;;10.59;100.00
62011;BME280;47967;51.756;10.174;2024-02-21T14:43:28;99484.97;;;10.49;97.67
62011;BME280;47967;51.756;10.174;2024-02-21T14:47:32;99449.47;;;10.46;97.86
62011;BME280;47967;51.756;10.174;2024-02-21T14:51:35;99450.72;;;10.43;97.28
62011;BME280;47967;51.756;10.174;2024-02-21T14:55:37;99433.50;;;10.57;97.43
62011;BME280;47967;51.756;10.174;2024-02-21T14:59:40;99413.19;;;10.55;97.38
62011;BME280;47967;51.756;10.174;2024-02-21T15:03:44;99389.94;;;10.54;96.75
62011;BME280;47967;51.756;10.174;2024-02-21T15:07:47;99377.25;;;10.54;95.92
62011;BME280;47967;51.756;10.174;2024-02-21T15:11:49;99381.22;;;10.59;96.14
62011;BME280;47967;51.756;10.174;2024-02-21T15:15:52;99373.75;;;10.54;95.22
62011;BME280;47967;51.756;10.174;2024-02-21T15:19:57;99367.97;;;10.37;95.99
62011;BME280;47967;51.756;10.174;2024-02-21T15:24:01;99368.31;;;10.34;96.24
62011;BME280;47967;51.756;10.174;2024-02-21T15:28:04;99357.34;;;10.35;96.23
62011;BME280;47967;51.756;10.174;2024-02-21T15:32:07;99340.53;;;10.33;96.67
62011;BME280;47967;51.756;10.174;2024-02-21T15:36:12;99320.63;;;10.34;95.59
62011;BME280;47967;51.756;10.174;2024-02-21T15:40:15;99319.63;;;10.49;94.60
62011;BME280;47967;51.756;10.174;2024-02-21T15:44:17;99321.09;;;10.38;93.59
62011;BME280;47967;51.756;10.174;2024-02-21T15:48:22;99316.72;;;10.37;94.58
62011;BME280;47967;51.756;10.174;2024-02-21T15:52:28;99315.47;;;10.39;94.71
62011;BME280;47967;51.756;10.174;2024-02-21T15:56:30;99312.34;;;10.36;94.23
62011;BME280;47967;51.756;10.174;2024-02-21T16:00:33;99309.84;;;10.28;93.92
62011;BME280;47967;51.756;10.174;2024-02-21T16:04:35;99289.97;;;10.15;94.01
62011;BME280;47967;51.756;10.174;2024-02-21T16:08:41;99260.72;;;10.05;92.91
62011;BME280;47967;51.756;10.174;2024-02-21T16:12:44;99242.72;;;9.86;95.39
62011;BME280;47967;51.756;10.174;2024-02-21T16:16:46;99223.03;;;9.65;95.83
62011;BME280;47967;51.756;10.174;2024-02-21T16:20:49;99217.66;;;9.38;96.86
62011;BME280;47967;51.756;10.174;2024-02-21T16:24:53;99198.41;;;9.28;96.24
62011;BME280;47967;51.756;10.174;2024-02-21T16:28:56;99183.25;;;9.20;96.76
62011;BME280;47967;51.756;10.174;2024-02-21T16:32:59;99184.91;;;9.08;98.12
62011;BME280;47967;51.756;10.174;2024-02-21T16:37:02;99172.88;;;8.97;100.00
62011;BME280;47967;51.756;10.174;2024-02-21T16:41:10;99176.81;;;8.88;100.00
62011;BME280;47967;51.756;10.174;2024-02-21T16:45:13;99184.66;;;8.83;100.00
62011;BME280;47967;51.756;10.174;2024-02-21T16:49:15;99172.84;;;8.77;100.00
62011;BME280;47967;51.756;10.174;2024-02-21T16:53:19;99173.91;;;8.83;100.00
62011;BME280;47967;51.756;10.174;2024-02-21T16:57:23;99182.56;;;8.78;100.00
62011;BME280;47967;51.756;10.174;2024-02-21T17:01:26;99197.47;;;8.87;100.00
62011;BME280;47967;51.756;10.174;2024-02-21T17:05:28;99182.78;;;8.90;100.00
62011;BME280;47967;51.756;10.174;2024-02-21T17:09:31;99179.91;;;8.91;100.00
62011;BME280;47967;51.756;10.174;2024-02-21T17:13:36;99194.38;;;8.84;100.00
62011;BME280;47967;51.756;10.174;2024-02-21T17:17:39;99247.34;;;8.83;100.00
62011;BME280;47967;51.756;10.174;2024-02-21T17:21:41;99234.09;;;8.88;100.00
62011;BME280;47967;51.756;10.174;2024-02-21T17:25:44;99223.38;;;9.02;100.00
62011;BME280;47967;51.756;10.174;2024-02-21T17:29:48;99216.38;;;9.14;98.42
62011;BME280;47967;51.756;10.174;2024-02-21T17:33:51;99204.56;;;9.15;97.01
62011;BME280;47967;51.756;10.174;2024-02-21T17:37:54;99197.94;;;9.18;96.79
62011;BME280;47967;51.756;10.174;2024-02-21T17:41:56;99195.91;;;9.26;96.13
62011;BME280;47967;51.756;10.174;2024-02-21T17:46:01;99174.56;;;9.25;96.31
62011;BME280;47967;51.756;10.174;2024-02-21T17:50:04;99178.69;;;9.27;95.67
62011;BME280;47967;51.756;10.174;2024-02-21T17:54:07;99177.69;;;9.28;94.93
62011;BME280;47967;51.756;10.174;2024-02-21T17:58:10;99169.19;;;9.32;94.86
62011;BME280;47967;51.756;10.174;2024-02-21T18:02:14;99170.22;;;9.37;94.79
62011;BME280;47967;51.756;10.174;2024-02-21T18:06:21;99165.69;;;9.24;94.30
62011;BME280;47967;51.756;10.174;2024-02-21T18:10:24;99152.00;;;9.26;94.59
62011;BME280;47967;51.756;10.174;2024-02-21T18:14:27;99136.69;;;9.20;95.89
62011;BME280;47967;51.756;10.174;2024-02-21T18:18:31;99126.72;;;9.20;96.72
62011;BME280;47967;51.756;10.174;2024-02-21T18:22:34;99123.03;;;9.28;95.24
62011;BME280;47967;51.756;10.174;2024-02-21T18:26:37;99116.81;;;9.34;94.39
62011;BME280;47967;51.756;10.174;2024-02-21T18:30:40;99111.22;;;9.29;92.37
62011;BME280;47967;51.756;10.174;2024-02-21T18:34:44;99114.94;;;9.35;90.41
62011;BME280;47967;51.756;10.174;2024-02-21T18:38:46;99102.50;;;9.40;91.32
62011;BME280;47967;51.756;10.174;2024-02-21T18:42:49;99090.50;;;9.36;89.93
62011;BME280;47967;51.756;10.174;2024-02-21T18:46:51;99084.69;;;9.46;89.86
62011;BME280;47967;51.756;10.174;2024-02-21T18:50:56;99069.97;;;9.42;90.25
62011;BME280;47967;51.756;10.174;2024-02-21T18:54:59;99056.13;;;9.38;89.74
62011;BME280;47967;51.756;10.174;2024-02-21T18:59:01;99054.47;;;9.37;90.33
62011;BME280;47967;51.756;10.174;2024-02-21T19:03:05;99039.78;;;9.40;90.32
62011;BME280;47967;51.756;10.174;2024-02-21T19:07:09;99042.25;;;9.35;90.13
62011;BME280;47967;51.756;10.174;2024-02-21T19:11:11;99032.91;;;9.37;89.39
62011;BME280;47967;51.756;10.174;2024-02-21T19:15:14;99015.94;;;9.37;88.90
62011;BME280;47967;51.756;10.174;2024-02-21T19:19:16;99016.75;;;9.37;87.85
62011;BME280;47967;51.756;10.174;2024-02-21T19:23:20;99017.00;;;9.29;88.05
62011;BME280;47967;51.756;10.174;2024-02-21T19:27:23;99014.91;;;9.38;88.21
62011;BME280;47967;51.756;10.174;2024-02-21T19:31:26;99003.31;;;9.37;88.09
62011;BME280;47967;51.756;10.174;2024-02-21T19:35:29;98993.16;;;9.39;88.04
62011;BME280;47967;51.756;10.174;2024-02-21T19:39:33;98971.41;;;9.48;87.97
62011;BME280;47967;51.756;10.174;2024-02-21T19:43:35;98945.09;;;9.50;87.22
62011;BME280;47967;51.756;10.174;2024-02-21T19:47:38;98942.00;;;9.39;87.09
62011;BME280;47967;51.756;10.174;2024-02-21T19:51:44;98928.53;;;9.46;86.61
62011;BME280;47967;51.756;10.174;2024-02-21T19:55:48;98933.53;;;9.42;87.06
62011;BME280;47967;51.756;10.174;2024-02-21T19:59:51;98932.69;;;9.42;86.00
62011;BME280;47967;51.756;10.174;2024-02-21T20:03:54;98923.34;;;9.51;85.92
62011;BME280;47967;51.756;10.174;2024-02-21T20:07:57;98922.09;;;9.47;84.59
62011;BME280;47967;51.756;10.174;2024-02-21T20:12:01;98913.38;;;9.52;83.70
62011;BME280;47967;51.756;10.174;2024-02-21T20:16:06;98906.16;;;9.45;83.54
62011;BME280;47967;51.756;10.174;2024-02-21T20:20:09;98913.38;;;9.52;82.56
62011;BME280;47967;51.756;10.174;2024-02-21T20:24:12;98909.25;;;9.49;82.89
62011;BME280;47967;51.756;10.174;2024-02-21T20:28:35;98904.47;;;9.51;82.38
62011;BME280;47967;51.756;10.174;2024-02-21T20:32:38;98895.94;;;9.61;82.11
62011;BME280;47967;51.756;10.174;2024-02-21T20:36:41;98886.03;;;9.55;81.17
62011;BME280;47967;51.756;10.174;2024-02-21T20:40:43;98858.19;;;9.68;82.20
62011;BME280;47967;51.756;10.174;2024-02-21T20:44:48;98859.44;;;9.65;83.24
62011;BME280;47967;51.756;10.174;2024-02-21T20:48:50;98833.13;;;9.67;86.12
62011;BME280;47967;51.756;10.174;2024-02-21T20:52:53;98830.47;;;9.60;85.37
62011;BME280;47967;51.756;10.174;2024-02-21T20:56:55;98825.75;;;9.56;86.18
62011;BME280;47967;51.756;10.174;2024-02-21T21:01:01;98802.56;;;9.55;88.24
62011;BME280;47967;51.756;10.174;2024-02-21T21:05:04;98789.19;;;9.41;90.37
62011;BME280;47967;51.756;10.174;2024-02-21T21:09:08;98783.81;;;9.35;92.73
62011;BME280;47967;51.756;10.174;2024-02-21T21:13:10;98776.38;;;9.37;93.41
62011;BME280;47967;51.756;10.174;2024-02-21T21:17:32;98760.44;;;9.35;94.37
62011;BME280;47967;51.756;10.174;2024-02-21T21:21:34;98747.63;;;9.31;94.59
62011;BME280;47967;51.756;10.174;2024-02-21T21:25:37;98738.13;;;9.28;94.73
62011;BME280;47967;51.756;10.174;2024-02-21T21:29:39;98743.06;;;9.31;95.03
62011;BME280;47967;51.756;10.174;2024-02-21T21:33:43;98734.59;;;9.27;94.96
62011;BME280;47967;51.756;10.174;2024-02-21T21:37:46;98728.81;;;9.24;95.10
62011;BME280;47967;51.756;10.174;2024-02-21T21:41:48;98715.31;;;9.31;95.52
62011;BME280;47967;51.756;10.174;2024-02-21T21:45:51;98701.69;;;9.25;96.38
62011;BME280;47967;51.756;10.174;2024-02-21T21:49:55;98688.84;;;9.27;97.26
62011;BME280;47967;51.756;10.174;2024-02-21T21:53:57;98677.28;;;9.20;99.96
62011;BME280;47967;51.756;10.174;2024-02-21T21:58:00;98682.38;;;9.03;100.00
